Data for 12/06/2016

Time Sea-Level Adjusted Pressure Absolute Pressure Temperature Relative Humidity Dew Point   
(mb) (inHg) (mb) (inHg) (C) (F) (%) (C) (F)
00:05 1016 30 845 24.95 -9.2 15.4 82 -11.7 10.9
00:10 1016 30 845 24.95 -9.3 15.4 82 -11.7 10.9
00:15 1016 30 845 24.95 -9.3 15.3 81 -11.9 10.6
00:20 1016 30 845 24.95 -9.4 15.1 81 -12.1 10.2
00:25 1016 30 845 24.95 -9.6 14.8 80 -12.4 9.6
00:30 1015 29.97 845 24.95 -9.6 14.8 79 -12.5 9.4
00:35 1015 29.97 845 24.95 -9.6 14.7 79 -12.7 9.2
00:40 1015 29.97 845 24.95 -9.6 14.7 78 -12.9 8.9
00:45 1015 29.97 845 24.95 -9.6 14.8 76 -13 8.6
00:50 1015 29.97 845 24.95 -9.8 14.4 77 -13.1 8.4
00:55 1015 29.97 845 24.95 -9.9 14.1 77 -13.2 8.3
01:00 1015 29.97 844 24.92 -10 14 77 -13.4 7.9
01:05 1015 29.97 844 24.92 -10.2 13.7 77 -13.4 7.8
01:10 1015 29.97 844 24.92 -10.1 13.8 76 -13.6 7.5
01:15 1015 29.97 844 24.92 -10.3 13.5 76 -13.8 7.2
01:20 1015 29.97 844 24.92 -10.4 13.3 75 -13.9 6.9
01:25 1015 29.97 844 24.92 -10.4 13.3 75 -14 6.9
01:30 1015 29.97 844 24.92 -10.5 13.1 75 -14.1 6.6
01:35 1015 29.97 844 24.92 -10.7 12.8 75 -14.2 6.4
01:40 1015 29.97 844 24.92 -10.8 12.5 76 -14.3 6.2
01:45 1015 29.97 844 24.92 -11 12.1 77 -14.2 6.4
01:50 1015 29.97 844 24.92 -11.3 11.7 80 -14.1 6.5
01:55 1015 29.97 844 24.92 -11.5 11.4 79 -14.4 6
02:00 1015 29.97 844 24.92 -11.2 11.9 78 -14.3 6.2
02:05 1015 29.97 844 24.92 -11.1 12 77 -14.4 6
02:10 1015 29.97 844 24.92 -11.3 11.6 76 -14.7 5.6
02:15 1015 29.97 844 24.92 -11.3 11.6 78 -14.5 5.9
02:20 1015 29.97 844 24.92 -11.3 11.7 76 -14.7 5.6
02:25 1015 29.97 844 24.92 -11.6 11.2 78 -14.6 5.7
02:30 1015 29.97 844 24.92 -11.8 10.8 82 -14.2 6.4
02:35 1015 29.97 844 24.92 -11.5 11.3 83 -13.8 7.1
02:40 1015 29.97 844 24.92 -11.5 11.2 83 -13.9 7
02:45 1015 29.97 844 24.92 -11.7 11 85 -13.8 7.2
02:50 1015 29.97 844 24.92 -11.6 11.1 85 -13.6 7.5
02:55 1015 29.97 844 24.92 -11.5 11.4 84 -13.6 7.4
03:00 1015 29.97 844 24.92 -11.5 11.4 82 -13.9 7
03:05 1015 29.97 844 24.92 -11.8 10.8 79 -14.7 5.5
03:10 1015 29.97 844 24.92 -12.4 9.7 81 -15 5
03:15 1015 29.97 844 24.92 -12.6 9.4 82 -15 5
03:20 1015 29.97 844 24.92 -12.4 9.6 80 -15.2 4.7
03:25 1015 29.97 844 24.92 -12.8 8.9 75 -16.3 2.6
03:30 1015 29.97 844 24.92 -13.3 8.1 78 -16.3 2.7
03:35 1015 29.97 844 24.92 -12.9 8.8 80 -15.7 3.7
03:40 1015 29.97 844 24.92 -12.5 9.5 81 -15.2 4.6
03:45 1015 29.97 844 24.92 -12.4 9.8 80 -15.2 4.7
03:50 1015 29.97 844 24.92 -12.2 10.1 79 -15.2 4.7
03:55 1015 29.97 844 24.92 -12.1 10.2 76 -15.5 4.1
04:00 1015 29.97 844 24.92 -12.3 10 75 -15.8 3.6
04:05 1015 29.97 844 24.92 -12.4 9.6 77 -15.7 3.8
04:10 1015 29.97 844 24.92 -12.5 9.6 76 -15.8 3.6
04:15 1015 29.97 844 24.92 -12.8 9 78 -15.8 3.5
04:20 1015 29.97 844 24.92 -13 8.6 80 -15.8 3.6
04:25 1015 29.97 844 24.92 -12.8 8.9 78 -15.9 3.3
04:30 1015 29.97 844 24.92 -12.8 9 81 -15.4 4.3
04:35 1015 29.97 844 24.92 -12.8 9 86 -14.6 5.7
04:40 1015 29.97 844 24.92 -12.8 8.9 89 -14.3 6.3
04:45 1015 29.97 844 24.92 -12.8 9 90 -14.1 6.6
04:50 1015 29.97 844 24.92 -12.7 9.1 90 -14 6.9
04:55 1015 29.97 844 24.92 -12.6 9.3 89 -14 6.7
05:00 1015 29.97 844 24.92 -12.6 9.3 89 -14.1 6.7
05:05 1015 29.97 844 24.92 -12.5 9.6 87 -14.2 6.5
05:10 1015 29.97 844 24.92 -12.4 9.6 83 -14.7 5.5
05:15 1015 29.97 844 24.92 -12.7 9.1 82 -15.2 4.6
05:20 1015 29.97 844 24.92 -12.6 9.3 81 -15.3 4.5
05:25 1015 29.97 844 24.92 -12.6 9.3 76 -16 3.2
05:30 1015 29.97 844 24.92 -12.6 9.3 77 -15.8 3.5
05:35 1015 29.97 844 24.92 -12.6 9.3 75 -16.2 2.9
05:40 1015 29.97 844 24.92 -12.7 9.1 76 -16.1 3
05:45 1015 29.97 844 24.92 -12.6 9.3 74 -16.3 2.7
05:50 1015 29.97 844 24.92 -12.6 9.3 76 -16 3.1
05:55 1015 29.97 844 24.92 -12.6 9.3 75 -16.2 2.8
06:00 1015 29.97 844 24.92 -12.8 9 75 -16.4 2.6
06:05 1015 29.97 844 24.92 -12.9 8.9 75 -16.4 2.5
06:10 1015 29.97 844 24.92 -12.8 9 77 -16.1 3.1
06:15 1015 29.97 844 24.92 -12.5 9.4 74 -16.2 2.8
06:20 1015 29.97 844 24.92 -12.5 9.5 73 -16.4 2.5
06:25 1015 29.97 844 24.92 -12.6 9.3 73 -16.5 2.4
06:30 1015 29.97 844 24.92 -12.9 8.8 74 -16.6 2.1
06:35 1015 29.97 844 24.92 -12.9 8.8 74 -16.7 2
06:40 1015 29.97 844 24.92 -13 8.7 74 -16.6 2.1
06:45 1015 29.97 844 24.92 -13 8.6 76 -16.4 2.5
06:50 1015 29.97 844 24.92 -12.8 9 76 -16.2 2.9
06:55 1015 29.97 844 24.92 -12.8 9 76 -16.1 3
07:00 1015 29.97 844 24.92 -13 8.7 76 -16.4 2.6
07:05 1015 29.97 844 24.92 -13 8.7 73 -16.8 1.8
07:10 1015 29.97 844 24.92 -13 8.6 74 -16.8 1.8
07:15 1015 29.97 844 24.92 -12.8 9 73 -16.7 2
07:20 1015 29.97 844 24.92 -12.9 8.8 74 -16.7 2
07:25 1015 29.97 844 24.92 -12.9 8.8 74 -16.7 2
07:30 1015 29.97 844 24.92 -12.8 8.9 75 -16.4 2.5
07:35 1015 29.97 844 24.92 -13 8.6 77 -16.3 2.7
07:40 1015 29.97 844 24.92 -13.2 8.3 76 -16.6 2.2
07:45 1015 29.97 844 24.92 -13.2 8.2 77 -16.5 2.3
07:50 1015 29.97 844 24.92 -13.2 8.2 77 -16.5 2.4
07:55 1015 29.97 844 24.92 -13.3 8.1 76 -16.6 2.1
08:00 1015 29.97 844 24.92 -13.4 7.8 76 -16.7 1.9
08:05 1015 29.97 844 24.92 -13.4 7.8 76 -16.9 1.6
08:10 1015 29.97 844 24.92 -13.4 7.9 76 -16.8 1.7
08:15 1015 29.97 844 24.92 -13.4 7.9 75 -17 1.5
08:20 1015 29.97 844 24.92 -13.6 7.5 76 -17 1.3
08:25 1015 29.97 844 24.92 -13.7 7.4 77 -16.9 1.5
08:30 1015 29.97 844 24.92 -13.6 7.6 77 -16.9 1.7
08:35 1015 29.97 844 24.92 -13.5 7.7 77 -16.8 1.8
08:40 1015 29.97 844 24.92 -13.4 7.9 77 -16.6 2.2
08:45 1015 29.97 844 24.92 -13.3 8 76 -16.7 2
08:50 1015 29.97 844 24.92 -13.5 7.7 77 -16.7 2
08:55 1015 29.97 844 24.92 -13.5 7.7 76 -16.8 1.7
09:00 1015 29.97 844 24.92 -13.4 7.9 76 -16.7 1.9
09:05 1015 29.97 844 24.92 -13.3 8.1 76 -16.6 2.1
09:10 1015 29.97 844 24.92 -13.2 8.2 77 -16.5 2.3
09:15 1015 29.97 844 24.92 -13 8.5 76 -16.4 2.5
09:20 1015 29.97 844 24.92 -13 8.7 75 -16.5 2.3
09:25 1015 29.97 844 24.92 -13 8.6 76 -16.4 2.4
09:30 1015 29.97 844 24.92 -13 8.6 76 -16.4 2.4
09:35 1015 29.97 844 24.92 -12.9 8.7 76 -16.4 2.5
09:40 1015 29.97 844 24.92 -12.9 8.8 76 -16.4 2.6
09:45 1015 29.97 844 24.92 -12.9 8.8 75 -16.5 2.3
09:50 1015 29.97 844 24.92 -12.9 8.8 74 -16.7 2
09:55 1015 29.97 844 24.92 -12.9 8.9 74 -16.6 2.2
10:00 1015 29.97 844 24.92 -12.5 9.4 72 -16.6 2
10:05 1015 29.97 844 24.92 -12.7 9.2 73 -16.6 2.1
10:10 1015 29.97 844 24.92 -12.8 9 73 -16.8 1.8
10:15 1015 29.97 844 24.92 -12.8 8.9 72 -16.9 1.6
10:20 1015 29.97 844 24.92 -12.8 8.9 73 -16.7 2
10:25 1015 29.97 844 24.92 -12.8 8.9 72 -16.8 1.7
10:30 1015 29.97 844 24.92 -12.8 9 73 -16.7 1.9
10:35 1015 29.97 844 24.92 -12.8 8.9 72 -16.8 1.7
10:40 1015 29.97 844 24.92 -12.9 8.8 72 -16.9 1.6
10:45 1015 29.97 844 24.92 -12.9 8.8 72 -16.9 1.6
10:50 1015 29.97 844 24.92 -12.9 8.9 73 -16.8 1.8
10:55 1015 29.97 844 24.92 -12.7 9.1 72 -16.7 1.9
11:00 1015 29.97 844 24.92 -12.7 9.1 72 -16.7 1.9
11:05 1015 29.97 844 24.92 -12.7 9.1 73 -16.7 2
11:10 1015 29.97 844 24.92 -12.7 9.1 73 -16.6 2.1
11:15 1015 29.97 844 24.92 -12.6 9.3 73 -16.6 2.2
11:20 1015 29.97 844 24.92 -12.5 9.5 72 -16.5 2.3
11:25 1014 29.94 844 24.92 -12.3 9.8 71 -16.5 2.2
11:30 1014 29.94 844 24.92 -12.2 10 70 -16.6 2.2
11:35 1014 29.94 844 24.92 -12.3 9.8 72 -16.5 2.4
11:40 1014 29.94 844 24.92 -12 10.5 69 -16.6 2.1
11:45 1014 29.94 843 24.89 -12 10.4 70 -16.5 2.4
11:50 1014 29.94 843 24.89 -12 10.5 69 -16.5 2.2
11:55 1014 29.94 843 24.89 -12 10.4 70 -16.4 2.4
12:00 1014 29.94 843 24.89 -12 10.5 69 -16.5 2.3
12:05 1014 29.94 843 24.89 -11.9 10.5 68 -16.7 2
12:10 1014 29.94 843 24.89 -11.9 10.6 67 -16.8 1.8
12:15 1014 29.94 843 24.89 -11.9 10.6 67 -16.8 1.7
12:20 1014 29.94 843 24.89 -11.9 10.6 68 -16.7 1.9
12:25 1014 29.94 843 24.89 -11.9 10.6 68 -16.6 2.1
12:30 1014 29.94 843 24.89 -11.4 11.4 64 -16.9 1.6
12:35 1014 29.94 843 24.89 -11.7 10.9 66 -16.8 1.7
12:40 1014 29.94 843 24.89 -11.6 11.2 66 -16.6 2.1
12:45 1014 29.94 843 24.89 -11.5 11.3 66 -16.6 2
12:50 1014 29.94 843 24.89 -11.7 11 67 -16.7 2
12:55 1014 29.94 843 24.89 -11.9 10.6 68 -16.7 2
13:00 1014 29.94 843 24.89 -11.6 11.1 65 -16.9 1.6
13:05 1014 29.94 843 24.89 -11.7 11 65 -16.9 1.5
13:10 1014 29.94 843 24.89 -11.5 11.4 65 -16.8 1.7
13:15 1014 29.94 843 24.89 -11.6 11.1 65 -16.9 1.6
13:20 1014 29.94 843 24.89 -11.6 11.1 67 -16.6 2.1
13:25 1014 29.94 843 24.89 -11.6 11.1 65 -16.9 1.6
13:30 1014 29.94 843 24.89 -11.8 10.8 66 -16.9 1.6
13:35 1014 29.94 843 24.89 -11.7 10.9 67 -16.7 2
13:40 1014 29.94 843 24.89 -11.4 11.4 65 -16.7 2
13:45 1014 29.94 843 24.89 -11.5 11.2 65 -16.9 1.7
13:50 1014 29.94 843 24.89 -11.7 10.9 66 -16.8 1.8
13:55 1014 29.94 843 24.89 -11.7 11 66 -16.7 1.9
14:00 1014 29.94 843 24.89 -11.7 11 67 -16.7 1.9
14:05 1014 29.94 843 24.89 -11.9 10.6 68 -16.7 1.9
14:10 1014 29.94 843 24.89 -11.9 10.7 68 -16.6 2
14:15 1014 29.94 843 24.89 -11.9 10.6 68 -16.7 1.9
14:20 1014 29.94 843 24.89 -12 10.4 68 -16.7 1.9
14:25 1014 29.94 843 24.89 -12 10.3 69 -16.6 2
14:30 1014 29.94 843 24.89 -12 10.4 68 -16.8 1.7
14:35 1014 29.94 843 24.89 -12.1 10.1 69 -16.7 1.9
14:40 1014 29.94 843 24.89 -12.2 10.1 68 -16.9 1.5
14:45 1014 29.94 843 24.89 -12.1 10.2 68 -16.8 1.7
14:50 1014 29.94 843 24.89 -12.1 10.2 68 -16.9 1.6
14:55 1014 29.94 843 24.89 -12.4 9.8 68 -17.1 1.2
15:00 1014 29.94 843 24.89 -12.5 9.6 69 -17.1 1.2
15:05 1014 29.94 843 24.89 -12.7 9.2 69 -17.3 0.9
15:10 1014 29.94 843 24.89 -12.8 9 69 -17.3 0.9
15:15 1014 29.94 843 24.89 -12.8 9 69 -17.3 0.8
15:20 1014 29.94 843 24.89 -12.8 9 68 -17.5 0.6
15:25 1014 29.94 843 24.89 -12.9 8.8 69 -17.5 0.6
15:30 1014 29.94 844 24.92 -12.9 8.8 69 -17.5 0.5
15:35 1014 29.94 844 24.92 -13 8.6 69 -17.5 0.6
15:40 1014 29.94 844 24.92 -13 8.5 70 -17.5 0.5
15:45 1014 29.94 844 24.92 -13 8.6 69 -17.5 0.4
15:50 1014 29.94 844 24.92 -13.1 8.5 70 -17.5 0.5
15:55 1015 29.97 844 24.92 -13.1 8.3 69 -17.6 0.3
16:00 1015 29.97 844 24.92 -13.3 8.1 69 -17.7 0.1
16:05 1015 29.97 844 24.92 -13.3 8 70 -17.7 0.1
16:10 1015 29.97 844 24.92 -13.4 7.9 70 -17.8 0
16:15 1015 29.97 844 24.92 -13.4 7.8 70 -17.8 -0.1
16:20 1015 29.97 844 24.92 -13.5 7.8 70 -17.8 -0.1
16:25 1015 29.97 844 24.92 -13.5 7.7 71 -17.8 0
16:30 1015 29.97 844 24.92 -13.5 7.8 70 -17.9 -0.2
16:35 1015 29.97 844 24.92 -13.5 7.7 71 -17.8 0
16:40 1015 29.97 844 24.92 -13.5 7.7 71 -17.7 0.1
16:45 1015 29.97 845 24.95 -13.5 7.7 71 -17.8 0
16:50 1015 29.97 845 24.95 -13.5 7.8 71 -17.7 0.2
16:55 1015 29.97 845 24.95 -13.4 7.8 71 -17.6 0.4
17:00 1015 29.97 845 24.95 -13.4 7.9 71 -17.6 0.3
17:05 1016 30 845 24.95 -13.3 8.1 70 -17.7 0.1
17:10 1016 30 845 24.95 -13.2 8.3 70 -17.6 0.2
17:15 1016 30 845 24.95 -13.1 8.4 69 -17.8 0
17:20 1016 30 845 24.95 -13.2 8.3 70 -17.6 0.4
17:25 1016 30 845 24.95 -13.2 8.3 70 -17.6 0.4
17:30 1016 30 845 24.95 -13.2 8.2 71 -17.5 0.5
17:35 1016 30 845 24.95 -13.3 8.2 70 -17.6 0.3
17:40 1016 30 845 24.95 -13.2 8.2 70 -17.6 0.4
17:45 1016 30 845 24.95 -13.2 8.2 71 -17.4 0.6
17:50 1016 30 845 24.95 -13.3 8.2 72 -17.3 0.8
17:55 1016 30 845 24.95 -13.3 8.1 72 -17.3 0.9
18:00 1016 30 845 24.95 -13.3 8.1 72 -17.3 0.8
18:05 1016 30 846 24.98 -13.3 8.1 72 -17.3 0.8
18:10 1016 30 846 24.98 -13.3 8.1 72 -17.3 0.8
18:15 1016 30 846 24.98 -13.3 8 71 -17.6 0.3
18:20 1016 30 846 24.98 -13.4 7.8 69 -17.9 -0.2
18:25 1017 30.03 846 24.98 -13.5 7.7 70 -17.9 -0.2
18:30 1017 30.03 846 24.98 -13.6 7.5 70 -18 -0.5
18:35 1017 30.03 846 24.98 -13.7 7.4 69 -18.3 -0.9
18:40 1017 30.03 846 24.98 -13.9 7.1 70 -18.3 -0.9
18:45 1017 30.03 846 24.98 -14 6.8 69 -18.5 -1.3
18:50 1017 30.03 846 24.98 -14.1 6.7 69 -18.5 -1.3
18:55 1017 30.03 846 24.98 -14.1 6.6 69 -18.7 -1.6
19:00 1017 30.03 846 24.98 -14.2 6.5 69 -18.7 -1.6
19:05 1017 30.03 846 24.98 -14.2 6.4 69 -18.7 -1.7
19:10 1017 30.03 846 24.98 -14.3 6.3 69 -18.7 -1.7
19:15 1017 30.03 846 24.98 -14.3 6.2 69 -18.8 -1.8
19:20 1017 30.03 846 24.98 -14.4 6 69 -18.9 -2
19:25 1017 30.03 846 24.98 -14.5 5.9 69 -19.1 -2.3
19:30 1017 30.03 846 24.98 -14.6 5.8 69 -19.1 -2.4
19:35 1017 30.03 846 24.98 -14.6 5.7 68 -19.3 -2.8
19:40 1017 30.03 846 24.98 -14.6 5.7 67 -19.4 -2.9
19:45 1017 30.03 846 24.98 -14.6 5.6 68 -19.3 -2.7
19:50 1017 30.03 846 24.98 -14.7 5.5 68 -19.4 -2.9
19:55 1017 30.03 846 24.98 -14.7 5.5 68 -19.3 -2.8
20:00 1017 30.03 846 24.98 -14.7 5.5 68 -19.4 -3
20:05 1017 30.03 847 25.01 -14.7 5.5 69 -19.2 -2.5
20:10 1017 30.03 847 25.01 -14.8 5.5 70 -19.1 -2.4
20:15 1017 30.03 847 25.01 -14.8 5.4 70 -19 -2.3
20:20 1017 30.03 847 25.01 -14.8 5.3 70 -19.1 -2.4
20:25 1017 30.03 847 25.01 -14.9 5.2 71 -19.1 -2.4
20:30 1018 30.06 847 25.01 -15 5 71 -19.1 -2.4
20:35 1018 30.06 847 25.01 -15 4.9 71 -19.2 -2.6
20:40 1018 30.06 847 25.01 -15.1 4.7 70 -19.4 -2.9
20:45 1018 30.06 847 25.01 -15.2 4.6 71 -19.4 -2.9
20:50 1018 30.06 847 25.01 -15.3 4.5 72 -19.3 -2.8
20:55 1018 30.06 847 25.01 -15.4 4.4 72 -19.4 -2.9
21:00 1018 30.06 847 25.01 -15.4 4.4 71 -19.4 -3
21:05 1018 30.06 847 25.01 -15.3 4.5 71 -19.4 -2.9
21:10 1018 30.06 847 25.01 -15.3 4.4 71 -19.5 -3.1
21:15 1018 30.06 847 25.01 -15.3 4.4 72 -19.3 -2.8
21:20 1018 30.06 847 25.01 -15.4 4.3 73 -19.3 -2.7
21:25 1018 30.06 847 25.01 -15.4 4.2 73 -19.3 -2.7
21:30 1018 30.06 847 25.01 -15.5 4.1 73 -19.4 -2.9
21:35 1018 30.06 847 25.01 -15.5 4.1 72 -19.5 -3.1
21:40 1018 30.06 848 25.04 -15.6 4 72 -19.6 -3.3
21:45 1018 30.06 848 25.04 -15.6 4 72 -19.6 -3.2
21:50 1018 30.06 848 25.04 -15.6 3.9 70 -19.8 -3.7
21:55 1019 30.09 848 25.04 -15.7 3.8 70 -20 -4
22:00 1019 30.09 848 25.04 -15.7 3.8 70 -20 -4
22:05 1019 30.09 848 25.04 -15.7 3.8 70 -20 -4.1
22:10 1019 30.09 848 25.04 -15.7 3.8 69 -20.1 -4.2
22:15 1019 30.09 848 25.04 -15.7 3.8 69 -20.1 -4.2
22:20 1019 30.09 848 25.04 -15.7 3.7 69 -20.2 -4.4
22:25 1019 30.09 848 25.04 -15.8 3.7 68 -20.3 -4.6
22:30 1019 30.09 848 25.04 -15.8 3.6 69 -20.2 -4.4
22:35 1019 30.09 848 25.04 -15.8 3.6 69 -20.3 -4.5
22:40 1019 30.09 848 25.04 -15.8 3.6 69 -20.3 -4.6
22:45 1019 30.09 848 25.04 -15.8 3.5 69 -20.3 -4.5
22:50 1019 30.09 849 25.07 -15.9 3.4 69 -20.3 -4.5
22:55 1019 30.09 849 25.07 -16 3.3 69 -20.4 -4.8
23:00 1019 30.09 849 25.07 -16 3.3 69 -20.4 -4.7
23:05 1019 30.09 849 25.07 -16 3.3 69 -20.4 -4.7
23:10 1020 30.12 849 25.07 -15.9 3.4 70 -20.2 -4.4
23:15 1020 30.12 849 25.07 -15.9 3.4 69 -20.3 -4.5
23:20 1020 30.12 849 25.07 -15.9 3.5 70 -20.2 -4.3
23:25 1020 30.12 849 25.07 -15.9 3.5 72 -19.8 -3.6
23:30 1020 30.12 849 25.07 -15.8 3.5 73 -19.6 -3.2
23:35 1020 30.12 849 25.07 -15.8 3.5 70 -20 -4.1
23:40 1020 30.12 849 25.07 -15.6 3.8 69 -20.2 -4.3
23:45 1020 30.12 849 25.07 -15.6 3.9 74 -19.3 -2.7
23:50 1020 30.12 849 25.07 -15.8 3.6 71 -19.9 -3.7
23:55 1020 30.12 849 25.07 -15.9 3.4 75 -19.4 -2.8
24:00 1020 30.12 849 25.07 -15.9 3.4 78 -18.9 -2.1